Time;durP1;ratioP1;P1;durP2;ratioP2;P2;SDS_P1;SDS_P2;PMS_P1;PMS_P2;Temp;Humidity;BMP_temperature;BMP_pressure;BME280_temperature;BME280_humidity;BME280_pressure;Samples;Min_cycle;Max_cycle;Signal;HPM_P1;HPM_P2
2022/01/04 00:00:36;;;;;;;1.77;0.70;;;8.60;99.90;;;;;;5035023;28;20177;-78
2022/01/04 00:03:02;;;;;;;1.83;0.90;;;8.60;99.90;;;;;;5035234;28;20226;-77
2022/01/04 00:05:28;;;;;;;4.33;1.00;;;8.60;99.90;;;;;;5035096;28;20257;-78
2022/01/04 00:07:53;;;;;;;2.47;0.80;;;8.60;99.90;;;;;;5035545;28;20168;-78
2022/01/04 00:10:22;;;;;;;3.30;1.03;;;8.60;99.90;;;;;;5033576;28;20583;-78
2022/01/04 00:15:33;;;;;;;2.30;0.90;;;8.60;99.90;;;;;;5035459;28;20206;-77
2022/01/04 00:17:58;;;;;;;2.40;1.10;;;8.50;99.90;;;;;;5033812;28;20176;-77
2022/01/04 00:20:24;;;;;;;3.00;0.77;;;8.50;99.90;;;;;;5034849;28;20184;-78
2022/01/04 00:22:50;;;;;;;1.93;0.60;;;8.50;99.90;;;;;;5041657;28;20699;-77
2022/01/04 00:25:16;;;;;;;3.27;0.73;;;8.50;99.90;;;;;;5041585;28;20204;-77
2022/01/04 00:27:42;;;;;;;4.93;0.80;;;8.50;99.90;;;;;;5036348;28;20175;-77
2022/01/04 00:30:08;;;;;;;2.83;0.80;;;8.50;99.90;;;;;;5034804;28;20263;-77
2022/01/04 00:32:34;;;;;;;2.53;0.70;;;8.40;99.90;;;;;;5034250;28;20271;-78
2022/01/04 00:34:59;;;;;;;1.90;0.70;;;8.40;99.90;;;;;;5034781;28;20244;-77
2022/01/04 00:37:25;;;;;;;1.20;0.70;;;8.40;99.90;;;;;;5033382;28;20745;-77
2022/01/04 00:39:51;;;;;;;2.30;0.67;;;8.40;99.90;;;;;;5034775;28;20177;-77
2022/01/04 00:42:16;;;;;;;1.27;0.70;;;8.40;99.90;;;;;;5034334;28;20247;-77
2022/01/04 00:44:42;;;;;;;2.03;0.73;;;8.40;99.90;;;;;;5033121;28;20203;-77
2022/01/04 00:47:09;;;;;;;3.17;0.80;;;8.40;99.90;;;;;;5034354;28;20172;-77
2022/01/04 00:49:35;;;;;;;1.47;0.60;;;8.40;99.90;;;;;;5034524;28;20257;-77
2022/01/04 00:52:01;;;;;;;2.13;0.53;;;8.30;99.90;;;;;;5034176;28;20669;-77
2022/01/04 00:54:27;;;;;;;1.73;0.70;;;8.30;99.90;;;;;;5034324;28;20177;-77
2022/01/04 00:56:52;;;;;;;1.53;0.83;;;8.30;99.90;;;;;;5034146;28;20192;-77
2022/01/04 00:59:18;;;;;;;3.10;0.80;;;8.30;99.90;;;;;;5034273;28;20165;-77
2022/01/04 01:01:44;;;;;;;3.73;0.80;;;8.30;99.90;;;;;;5032875;28;20173;-80
2022/01/04 01:04:10;;;;;;;1.40;0.80;;;8.20;99.90;;;;;;5034513;28;20179;-78
2022/01/04 01:06:36;;;;;;;2.10;0.57;;;8.30;99.90;;;;;;5032820;28;20211;-77
2022/01/04 01:09:02;;;;;;;4.07;0.80;;;8.20;99.90;;;;;;5034791;28;20259;-77
2022/01/04 01:11:27;;;;;;;1.70;1.00;;;8.20;99.90;;;;;;5033773;28;20184;-77
2022/01/04 01:13:53;;;;;;;1.77;0.60;;;8.20;99.90;;;;;;5032859;28;20179;-78
2022/01/04 01:16:19;;;;;;;3.23;0.67;;;8.20;99.90;;;;;;5032585;28;20635;-77
2022/01/04 01:18:45;;;;;;;1.40;0.80;;;8.20;99.90;;;;;;5033368;28;20164;-77
2022/01/04 01:21:11;;;;;;;1.37;0.90;;;8.20;99.90;;;;;;5033753;28;20248;-77
2022/01/04 01:23:37;;;;;;;2.77;0.93;;;8.20;99.90;;;;;;5034483;28;20173;-77
2022/01/04 01:26:04;;;;;;;2.50;0.73;;;8.20;99.90;;;;;;5032513;28;20209;-77
2022/01/04 01:28:30;;;;;;;1.67;0.80;;;8.20;99.90;;;;;;5033738;28;20222;-77
2022/01/04 01:30:56;;;;;;;2.60;0.93;;;8.10;99.90;;;;;;5032173;28;20185;-77
2022/01/04 01:33:24;;;;;;;1.03;0.63;;;8.10;99.90;;;;;;5033663;28;20176;-77
2022/01/04 01:35:49;;;;;;;2.63;0.70;;;8.10;99.90;;;;;;5033468;28;20242;-77
2022/01/04 01:38:16;;;;;;;1.83;0.90;;;8.10;99.90;;;;;;5033568;28;20176;-77
2022/01/04 01:40:42;;;;;;;0.97;0.60;;;8.10;99.90;;;;;;5031609;28;20168;-78
2022/01/04 01:43:08;;;;;;;2.40;0.90;;;8.10;99.90;;;;;;5032308;28;20175;-77
2022/01/04 01:45:35;;;;;;;2.33;1.00;;;8.10;99.90;;;;;;5033281;28;20186;-77
2022/01/04 01:48:00;;;;;;;2.50;0.70;;;8.10;99.90;;;;;;5033316;28;20175;-77
2022/01/04 01:50:26;;;;;;;1.37;0.80;;;8.00;99.90;;;;;;5031818;28;20180;-78
2022/01/04 01:52:54;;;;;;;1.60;0.90;;;8.00;99.90;;;;;;5033291;28;20169;-77
2022/01/04 01:55:21;;;;;;;2.20;0.83;;;8.00;99.90;;;;;;5031957;28;20188;-77
2022/01/04 01:57:48;;;;;;;2.63;0.97;;;8.00;99.90;;;;;;5031338;28;20196;-77
2022/01/04 02:00:16;;;;;;;2.17;1.00;;;8.00;99.90;;;;;;5031882;28;20714;-78
2022/01/04 02:02:42;;;;;;;2.00;1.10;;;8.00;99.90;;;;;;5033263;28;20176;-77
2022/01/04 02:05:09;;;;;;;3.20;1.20;;;8.00;99.90;;;;;;5033128;28;20200;-77
2022/01/04 02:07:35;;;;;;;3.10;1.20;;;8.00;99.90;;;;;;5031640;28;20184;-77
2022/01/04 02:10:04;;;;;;;5.20;0.90;;;8.00;99.90;;;;;;5032950;28;20246;-77
2022/01/04 02:12:33;;;;;;;2.90;1.10;;;8.00;99.90;;;;;;5031896;28;20646;-77
2022/01/04 02:14:58;;;;;;;2.63;1.00;;;8.00;99.90;;;;;;5031824;28;20692;-78
2022/01/04 02:17:24;;;;;;;1.90;0.90;;;8.00;99.90;;;;;;5032766;28;20204;-78
2022/01/04 02:19:51;;;;;;;2.70;0.90;;;8.00;99.90;;;;;;5032960;28;20179;-77
2022/01/04 02:22:18;;;;;;;2.17;1.00;;;8.00;99.90;;;;;;5033022;28;20641;-77
2022/01/04 02:24:43;;;;;;;1.93;1.07;;;8.00;99.90;;;;;;5031723;28;20200;-77
2022/01/04 02:27:10;;;;;;;1.40;1.00;;;8.00;99.90;;;;;;5031413;28;20225;-78
2022/01/04 02:29:36;;;;;;;2.50;1.07;;;8.00;99.90;;;;;;5032952;28;20173;-77
2022/01/04 02:32:02;;;;;;;1.10;0.80;;;8.00;99.90;;;;;;5034949;28;20175;-77
2022/01/04 02:34:27;;;;;;;3.53;1.40;;;8.00;99.90;;;;;;5036744;28;20179;-77
2022/01/04 02:36:53;;;;;;;2.90;1.10;;;8.00;99.90;;;;;;5036596;28;20222;-79
2022/01/04 02:39:18;;;;;;;2.23;1.20;;;7.90;99.90;;;;;;5036733;28;20557;-78
2022/01/04 02:41:44;;;;;;;2.73;0.90;;;8.00;99.90;;;;;;5035492;28;20225;-77
2022/01/04 02:44:09;;;;;;;1.93;0.87;;;8.00;99.90;;;;;;5035413;28;20176;-77
2022/01/04 02:46:35;;;;;;;2.63;0.90;;;7.90;99.90;;;;;;5035324;28;20211;-77
2022/01/04 02:49:00;;;;;;;3.30;1.20;;;7.90;99.90;;;;;;5035099;28;20188;-77
2022/01/04 02:51:26;;;;;;;1.73;1.17;;;7.90;99.90;;;;;;5035348;28;20181;-77
2022/01/04 02:53:51;;;;;;;1.40;0.90;;;8.00;99.90;;;;;;5036496;28;20206;-77
2022/01/04 02:56:17;;;;;;;3.93;1.10;;;7.90;99.90;;;;;;5036265;28;20227;-77
2022/01/04 02:58:42;;;;;;;1.60;0.90;;;7.90;99.90;;;;;;5036247;28;20584;-77
2022/01/04 03:01:08;;;;;;;1.30;1.00;;;7.90;99.90;;;;;;5035198;28;20255;-77
2022/01/04 03:03:34;;;;;;;3.47;1.00;;;7.90;99.90;;;;;;5036025;28;20187;-77
2022/01/04 03:05:59;;;;;;;1.63;1.10;;;7.90;99.90;;;;;;5050144;23;20606;-79
2022/01/04 03:08:25;;;;;;;2.60;1.20;;;7.90;99.90;;;;;;5017291;28;20181;-79
2022/01/04 03:10:51;;;;;;;2.13;1.20;;;7.90;99.90;;;;;;5018236;28;20201;-79
2022/01/04 03:13:17;;;;;;;0.80;0.70;;;7.90;99.90;;;;;;5018617;28;20205;-81
2022/01/04 03:15:44;;;;;;;2.47;1.13;;;7.90;99.90;;;;;;5017457;28;20225;-77
2022/01/04 03:18:09;;;;;;;1.13;1.00;;;7.90;99.90;;;;;;5017166;28;20177;-79
2022/01/04 03:20:35;;;;;;;3.13;1.27;;;7.80;99.90;;;;;;5018633;28;20184;-79
2022/01/04 03:23:01;;;;;;;3.70;1.20;;;7.90;99.90;;;;;;5018446;28;20253;-79
2022/01/04 03:25:27;;;;;;;2.27;1.03;;;7.80;99.90;;;;;;5018220;28;20280;-79
2022/01/04 03:27:53;;;;;;;2.10;1.00;;;7.80;99.90;;;;;;5018520;28;20255;-79
2022/01/04 03:30:18;;;;;;;1.40;1.10;;;7.80;99.90;;;;;;5017981;28;20201;-79
2022/01/04 03:32:44;;;;;;;1.87;0.93;;;7.90;99.90;;;;;;5016966;28;20590;-79
2022/01/04 03:35:10;;;;;;;2.27;1.20;;;7.90;99.90;;;;;;5016729;28;20200;-79
2022/01/04 03:37:36;;;;;;;2.43;1.00;;;7.90;99.90;;;;;;5018028;28;20733;-78
2022/01/04 03:40:03;;;;;;;3.20;1.03;;;7.80;99.90;;;;;;5017164;28;20662;-79
2022/01/04 03:42:29;;;;;;;2.97;1.20;;;7.80;99.90;;;;;;5017476;28;20203;-79
2022/01/04 03:44:54;;;;;;;2.87;1.40;;;7.80;99.90;;;;;;5016916;28;20643;-79
2022/01/04 03:47:20;;;;;;;2.47;1.20;;;7.80;99.90;;;;;;5018011;28;20545;-79
2022/01/04 03:49:46;;;;;;;2.27;1.47;;;7.80;99.90;;;;;;5018165;28;20173;-79
2022/01/04 03:52:11;;;;;;;3.07;1.20;;;7.80;99.90;;;;;;5018094;28;20185;-79
2022/01/04 03:54:37;;;;;;;3.17;1.43;;;7.80;99.90;;;;;;5017998;28;20173;-79
2022/01/04 03:57:02;;;;;;;2.50;1.30;;;7.80;99.90;;;;;;5018121;28;20232;-79
2022/01/04 03:59:28;;;;;;;2.70;1.70;;;7.80;99.90;;;;;;5018033;28;20718;-79
2022/01/04 04:01:53;;;;;;;3.80;1.60;;;7.80;99.90;;;;;;5016627;28;20332;-79
2022/01/04 04:04:19;;;;;;;4.43;1.50;;;7.80;99.90;;;;;;5017594;28;20188;-79
2022/01/04 04:06:46;;;;;;;2.93;1.50;;;7.80;99.90;;;;;;5017812;28;20209;-79
2022/01/04 04:09:12;;;;;;;1.57;1.40;;;7.80;99.90;;;;;;5018312;28;20169;-79
2022/01/04 04:11:37;;;;;;;2.20;1.47;;;7.80;99.90;;;;;;5017860;28;20199;-79
2022/01/04 04:14:03;;;;;;;2.20;1.40;;;7.80;99.90;;;;;;5016413;28;20169;-79
2022/01/04 04:16:28;;;;;;;3.63;1.67;;;7.80;99.90;;;;;;5017638;28;20211;-79
2022/01/04 04:18:54;;;;;;;2.63;1.70;;;7.80;99.90;;;;;;5017852;28;20193;-79
2022/01/04 04:21:19;;;;;;;2.23;1.50;;;7.80;99.90;;;;;;5017394;28;20260;-79
2022/01/04 04:23:45;;;;;;;4.50;2.00;;;7.80;99.90;;;;;;5017658;28;20251;-79
2022/01/04 04:26:11;;;;;;;3.30;1.50;;;7.80;99.90;;;;;;5017699;28;20295;-79
2022/01/04 04:28:36;;;;;;;2.63;1.70;;;7.80;99.90;;;;;;5017448;28;20180;-79
2022/01/04 04:31:03;;;;;;;1.60;1.50;;;7.80;99.90;;;;;;5015600;28;20268;-79
2022/01/04 04:33:29;;;;;;;3.53;1.80;;;7.80;99.90;;;;;;5016166;28;20188;-79
2022/01/04 04:35:55;;;;;;;4.07;1.80;;;7.80;99.90;;;;;;5016988;28;20303;-78
2022/01/04 04:38:21;;;;;;;4.30;1.90;;;7.70;99.90;;;;;;5017577;28;20183;-79
2022/01/04 04:40:46;;;;;;;2.40;1.60;;;7.70;99.90;;;;;;5015598;28;20176;-79
2022/01/04 04:43:12;;;;;;;3.10;1.70;;;7.70;99.90;;;;;;5017110;28;20643;-79
2022/01/04 04:45:37;;;;;;;2.40;1.77;;;7.80;99.90;;;;;;5015804;28;20639;-79
2022/01/04 04:48:04;;;;;;;3.40;1.80;;;7.80;99.90;;;;;;5016363;28;20201;-79
2022/01/04 04:50:31;;;;;;;3.30;2.10;;;7.80;99.90;;;;;;5016968;28;20260;-78
2022/01/04 04:52:57;;;;;;;3.07;1.90;;;7.70;99.90;;;;;;5016130;28;20173;-79
2022/01/04 04:55:23;;;;;;;3.07;2.00;;;7.70;99.90;;;;;;5016895;28;20288;-79
2022/01/04 04:57:48;;;;;;;2.43;2.10;;;7.90;99.90;;;;;;5016598;28;20287;-79
2022/01/04 05:00:14;;;;;;;2.63;2.00;;;7.80;99.90;;;;;;5016995;28;20180;-79
2022/01/04 05:02:40;;;;;;;3.10;1.97;;;7.70;99.90;;;;;;5015869;28;20239;-79
2022/01/04 05:05:07;;;;;;;2.30;1.90;;;7.70;99.90;;;;;;5016796;28;20181;-79
2022/01/04 05:07:33;;;;;;;3.40;1.80;;;7.70;99.90;;;;;;5015455;28;20176;-79
2022/01/04 05:09:58;;;;;;;2.50;1.90;;;7.70;99.90;;;;;;5016901;28;20266;-79
2022/01/04 05:12:24;;;;;;;2.70;2.03;;;7.70;99.90;;;;;;5015593;28;20181;-79
2022/01/04 05:14:49;;;;;;;3.00;1.87;;;7.70;99.90;;;;;;5017022;28;20628;-79
2022/01/04 05:17:15;;;;;;;2.70;2.00;;;7.70;99.90;;;;;;5016600;28;20252;-79
2022/01/04 05:19:41;;;;;;;2.50;2.00;;;7.70;99.90;;;;;;5015109;28;20177;-79
2022/01/04 05:22:07;;;;;;;3.83;2.50;;;7.70;99.90;;;;;;5016500;28;20693;-79
2022/01/04 05:24:33;;;;;;;3.03;2.33;;;7.70;99.90;;;;;;5016363;28;20176;-79
2022/01/04 05:26:59;;;;;;;3.73;1.90;;;7.70;99.90;;;;;;5016693;28;20216;-79
2022/01/04 05:29:25;;;;;;;3.47;2.40;;;7.70;99.90;;;;;;5015985;28;20263;-80
2022/01/04 05:31:50;;;;;;;4.67;2.50;;;7.70;99.90;;;;;;5016302;28;20187;-80
2022/01/04 05:34:16;;;;;;;4.50;2.80;;;7.70;99.90;;;;;;5016408;28;20180;-79
2022/01/04 05:36:41;;;;;;;2.87;2.20;;;7.70;99.90;;;;;;5015021;28;20726;-79
2022/01/04 05:39:07;;;;;;;3.63;2.47;;;7.70;99.90;;;;;;5016131;28;20196;-79
2022/01/04 05:41:33;;;;;;;3.77;2.90;;;7.70;99.90;;;;;;5015308;28;20177;-79
2022/01/04 05:43:59;;;;;;;3.77;2.57;;;7.70;99.90;;;;;;5014994;28;20180;-79
2022/01/04 05:46:25;;;;;;;5.67;3.20;;;7.70;99.90;;;;;;5014886;28;20197;-79
2022/01/04 05:48:50;;;;;;;5.00;2.90;;;7.70;99.90;;;;;;5016735;28;20185;-79
2022/01/04 05:51:16;;;;;;;3.23;2.93;;;7.70;99.90;;;;;;5016467;28;20177;-79
2022/01/04 05:53:42;;;;;;;5.43;3.13;;;7.70;99.90;;;;;;5015700;28;20207;-79
2022/01/04 05:56:07;;;;;;;5.70;3.00;;;7.70;99.90;;;;;;5019744;28;20212;-78
2022/01/04 05:58:33;;;;;;;6.90;3.60;;;7.70;99.90;;;;;;5025520;28;20181;-78
2022/01/04 06:00:59;;;;;;;5.30;3.10;;;7.70;99.90;;;;;;5034040;28;20176;-79
2022/01/04 06:03:24;;;;;;;4.63;3.43;;;7.70;99.90;;;;;;5035788;28;20176;-77
2022/01/04 06:05:51;;;;;;;4.77;3.67;;;7.70;99.90;;;;;;5033966;28;20208;-78
2022/01/04 06:08:17;;;;;;;7.00;3.90;;;7.70;99.90;;;;;;5034907;28;20173;-79
2022/01/04 06:10:44;;;;;;;5.80;4.10;;;7.70;99.90;;;;;;5034603;28;20207;-78
2022/01/04 06:15:38;;;;;;;8.50;4.03;;;7.70;99.90;;;;;;5034761;28;20188;-79
2022/01/04 06:18:04;;;;;;;4.97;4.00;;;7.70;99.90;;;;;;5019678;28;20180;-79
2022/01/04 06:20:31;;;;;;;6.63;4.17;;;7.60;99.90;;;;;;5016361;28;20204;-80
2022/01/04 06:22:56;;;;;;;5.13;3.90;;;7.70;99.90;;;;;;5015928;28;20208;-80
2022/01/04 06:25:22;;;;;;;5.27;4.20;;;7.70;99.90;;;;;;5016677;28;20666;-80
2022/01/04 06:27:51;;;;;;;6.43;4.50;;;7.70;99.90;;;;;;5014948;28;20647;-80
2022/01/04 06:30:18;;;;;;;5.93;3.93;;;7.70;99.90;;;;;;5015037;28;20218;-79
2022/01/04 06:32:44;;;;;;;6.53;4.30;;;7.70;99.90;;;;;;5016807;28;20204;-80
2022/01/04 06:35:11;;;;;;;6.87;4.60;;;7.70;99.90;;;;;;5016515;28;20710;-79
2022/01/04 06:37:37;;;;;;;6.47;4.27;;;7.70;99.90;;;;;;5015301;28;20687;-80
2022/01/04 06:40:03;;;;;;;6.93;4.57;;;7.70;99.90;;;;;;5014136;28;20180;-80
2022/01/04 06:42:29;;;;;;;5.70;4.30;;;7.70;99.90;;;;;;5015124;28;20181;-80
2022/01/04 06:44:54;;;;;;;8.67;4.67;;;7.70;99.90;;;;;;5015857;28;20227;-80
2022/01/04 06:47:20;;;;;;;11.33;5.20;;;7.70;99.90;;;;;;5016967;28;20181;-80
2022/01/04 06:49:45;;;;;;;9.00;5.10;;;7.70;99.90;;;;;;5018092;28;20227;-81
2022/01/04 06:52:11;;;;;;;5.03;4.50;;;7.70;99.90;;;;;;5020663;28;20196;-81
2022/01/04 06:54:37;;;;;;;8.17;4.43;;;7.70;99.90;;;;;;5023530;28;20184;-80
2022/01/04 06:57:02;;;;;;;8.87;4.90;;;7.70;99.90;;;;;;5024902;28;20204;-80
2022/01/04 06:59:28;;;;;;;16.58;6.20;;;7.70;99.90;;;;;;5025337;28;20459;-81
2022/01/04 07:01:54;;;;;;;6.77;4.77;;;7.70;99.90;;;;;;5025396;28;20187;-80
2022/01/04 07:04:19;;;;;;;7.90;5.17;;;7.60;99.90;;;;;;5023927;28;20188;-81
2022/01/04 07:06:45;;;;;;;6.67;4.23;;;7.70;99.90;;;;;;5023518;28;20227;-81
2022/01/04 07:09:10;;;;;;;9.43;5.20;;;7.70;99.90;;;;;;5023724;28;20211;-81
2022/01/04 07:11:37;;;;;;;8.27;4.97;;;7.60;99.90;;;;;;5023136;28;20173;-80
2022/01/04 07:14:03;;;;;;;6.80;5.17;;;7.70;99.90;;;;;;5025678;28;20176;-80
2022/01/04 07:16:29;;;;;;;7.13;4.70;;;7.60;99.90;;;;;;5026103;28;20304;-81
2022/01/04 07:18:54;;;;;;;8.10;4.90;;;7.60;99.90;;;;;;5028537;28;20184;-80
2022/01/04 07:21:21;;;;;;;10.70;5.40;;;7.60;99.90;;;;;;5027543;28;20173;-81
2022/01/04 07:23:48;;;;;;;8.27;4.87;;;7.60;99.90;;;;;;5027499;28;20180;-81
2022/01/04 07:26:15;;;;;;;9.03;5.10;;;7.60;99.90;;;;;;5023238;28;20557;-80
2022/01/04 07:28:43;;;;;;;10.77;5.10;;;7.60;99.90;;;;;;5019645;28;20184;-80
2022/01/04 07:31:08;;;;;;;8.27;5.20;;;7.60;99.90;;;;;;5018605;28;20207;-81
2022/01/04 07:33:35;;;;;;;7.43;4.90;;;7.70;99.90;;;;;;5020153;28;20219;-80
2022/01/04 07:36:01;;;;;;;8.37;5.07;;;7.60;99.90;;;;;;5020322;28;20207;-81
2022/01/04 07:38:26;;;;;;;7.43;4.43;;;7.70;99.90;;;;;;5020076;28;20173;-81
2022/01/04 07:40:53;;;;;;;6.77;4.67;;;7.60;99.90;;;;;;5021415;28;20176;-81
2022/01/04 07:43:19;;;;;;;7.83;4.90;;;7.50;99.90;;;;;;5024541;28;20667;-80
2022/01/04 07:45:44;;;;;;;6.30;4.67;;;7.60;99.90;;;;;;5026004;28;20200;-81
2022/01/04 07:48:13;;;;;;;8.07;4.73;;;7.60;99.90;;;;;;5025688;28;20548;-81
2022/01/04 07:50:41;;;;;;;6.20;4.43;;;7.60;99.90;;;;;;5026153;28;20685;-81
2022/01/04 07:53:07;;;;;;;7.57;5.37;;;7.60;99.90;;;;;;5027939;28;20184;-81
2022/01/04 07:55:34;;;;;;;7.03;4.77;;;7.60;99.90;;;;;;5026141;28;20216;-81
2022/01/04 07:57:59;;;;;;;9.27;5.33;;;7.60;99.90;;;;;;5027046;28;20224;-81
2022/01/04 08:00:25;;;;;;;7.90;5.37;;;7.60;99.90;;;;;;5027097;28;20179;-81
2022/01/04 08:02:52;;;;;;;8.97;5.90;;;7.60;99.90;;;;;;5027855;28;20229;-81
2022/01/04 08:05:18;;;;;;;8.40;6.13;;;7.60;99.90;;;;;;5026379;28;20271;-81
2022/01/04 08:07:44;;;;;;;11.73;7.07;;;7.60;99.90;;;;;;5026898;28;20175;-81
2022/01/04 08:10:11;;;;;;;10.93;6.83;;;7.60;99.90;;;;;;5026182;28;20184;-81
2022/01/04 08:12:37;;;;;;;13.10;7.70;;;7.60;99.90;;;;;;5024954;28;20184;-81
2022/01/04 08:15:06;;;;;;;14.43;7.57;;;7.60;99.90;;;;;;5024673;28;20291;-81
2022/01/04 08:17:32;;;;;;;13.70;7.87;;;7.60;99.90;;;;;;5024789;28;20201;-81
2022/01/04 08:19:59;;;;;;;12.27;7.03;;;7.60;99.90;;;;;;5025569;28;20177;-81
2022/01/04 08:22:31;;;;;;;9.40;6.97;;;7.60;99.90;;;;;;5026489;28;20184;-81
2022/01/04 08:24:57;;;;;;;12.73;7.80;;;7.60;99.90;;;;;;5024599;28;20167;-81
2022/01/04 08:27:22;;;;;;;13.63;8.43;;;7.60;99.90;;;;;;5025476;28;20201;-80
2022/01/04 08:29:48;;;;;;;16.43;8.67;;;7.60;99.90;;;;;;5025829;28;20200;-81
2022/01/04 08:32:15;;;;;;;14.17;8.03;;;7.60;99.90;;;;;;5026319;28;20180;-81
2022/01/04 08:34:40;;;;;;;15.07;8.87;;;7.60;99.90;;;;;;5022281;28;20181;-81
2022/01/04 08:37:06;;;;;;;17.93;8.83;;;7.60;99.90;;;;;;5018986;28;20204;-81
2022/01/04 08:39:31;;;;;;;17.53;8.63;;;7.60;99.90;;;;;;5019933;28;20209;-80
2022/01/04 08:42:01;;;;;;;16.07;8.67;;;7.60;99.90;;;;;;5019893;28;20209;-81
2022/01/04 08:44:27;;;;;;;13.30;8.80;;;7.70;99.90;;;;;;5019273;28;20255;-81
2022/01/04 08:46:53;;;;;;;19.47;9.97;;;7.70;99.90;;;;;;5018290;28;20280;-80
2022/01/04 08:49:18;;;;;;;19.97;10.13;;;7.70;99.90;;;;;;5018150;28;20184;-80
2022/01/04 08:51:44;;;;;;;16.87;8.70;;;7.70;99.90;;;;;;5019742;28;20196;-80
2022/01/04 08:54:09;;;;;;;15.33;8.97;;;7.70;99.90;;;;;;5018186;28;20181;-80
2022/01/04 08:56:36;;;;;;;15.40;8.70;;;7.70;99.90;;;;;;5020346;28;20200;-80
2022/01/04 08:59:03;;;;;;;13.80;8.87;;;7.70;99.90;;;;;;5018759;28;20177;-80
2022/01/04 09:01:29;;;;;;;14.83;8.43;;;7.70;99.90;;;;;;5018547;28;20201;-80
2022/01/04 09:03:55;;;;;;;14.37;8.17;;;7.70;99.90;;;;;;5016702;28;20180;-80
2022/01/04 09:06:22;;;;;;;13.83;8.00;;;7.70;99.90;;;;;;5050774;23;20255;-79
2022/01/04 09:08:48;;;;;;;12.97;8.13;;;7.70;99.90;;;;;;5040272;28;20175;-80
2022/01/04 09:11:15;;;;;;;12.63;8.13;;;7.70;99.90;;;;;;5057178;28;20203;-81
2022/01/04 09:13:43;;;;;;;11.00;7.50;;;7.70;99.90;;;;;;5039371;28;20195;-80
2022/01/04 09:18:48;;;;;;;12.30;7.77;;;7.70;99.90;;;;;;5042069;28;20176;-79
2022/01/04 09:21:25;;;;;;;11.23;7.63;;;7.70;99.90;;;;;;5040764;28;20168;-80
2022/01/04 09:23:53;;;;;;;12.97;7.73;;;7.70;99.90;;;;;;5040615;28;20171;-79
2022/01/04 09:26:19;;;;;;;11.70;7.37;;;7.70;99.90;;;;;;5041719;28;20188;-80
2022/01/04 09:28:45;;;;;;;13.93;7.93;;;7.70;99.90;;;;;;5039546;28;20190;-79
2022/01/04 09:31:11;;;;;;;12.10;7.87;;;7.80;99.90;;;;;;5039662;28;20184;-80
2022/01/04 09:33:37;;;;;;;12.33;8.17;;;7.80;99.90;;;;;;5039708;28;20180;-80
2022/01/04 09:36:04;;;;;;;12.90;7.67;;;7.80;99.90;;;;;;5040099;28;20231;-79
2022/01/04 09:38:30;;;;;;;16.67;8.37;;;7.80;99.90;;;;;;5038708;28;20172;-79
2022/01/04 09:40:56;;;;;;;12.67;7.73;;;7.80;99.90;;;;;;5038393;28;20275;-79
2022/01/04 09:43:22;;;;;;;12.10;7.80;;;7.80;99.90;;;;;;5040250;28;20192;-80
2022/01/04 09:45:48;;;;;;;14.00;6.97;;;7.80;99.90;;;;;;5040135;28;20666;-79
2022/01/04 09:48:14;;;;;;;11.93;7.00;;;7.80;99.90;;;;;;5039488;28;20231;-80
2022/01/04 09:50:42;;;;;;;10.60;7.13;;;7.80;99.90;;;;;;5038599;28;20219;-82
2022/01/04 09:53:17;;;;;;;15.57;7.53;;;7.70;99.90;;;;;;5039799;28;20232;-81
2022/01/04 09:55:43;;;;;;;9.27;6.70;;;7.80;99.90;;;;;;5039728;28;20203;-80
2022/01/04 09:58:10;;;;;;;12.03;7.70;;;7.80;99.90;;;;;;5037915;28;20692;-80
2022/01/04 10:00:36;;;;;;;11.27;6.93;;;7.80;99.90;;;;;;5039591;28;20172;-79
2022/01/04 10:03:14;;;;;;;10.37;7.27;;;7.70;99.90;;;;;;5040473;28;20511;-80
2022/01/04 10:05:40;;;;;;;11.07;7.23;;;7.80;99.90;;;;;;5038502;28;20171;-80
2022/01/04 10:08:08;;;;;;;11.07;7.60;;;7.80;99.90;;;;;;5039829;28;20172;-80
2022/01/04 10:10:35;;;;;;;10.57;6.93;;;7.80;99.90;;;;;;5039840;28;20176;-79
2022/01/04 10:13:07;;;;;;;10.57;7.23;;;7.80;99.90;;;;;;5037458;28;20203;-80
2022/01/04 10:15:44;;;;;;;9.77;6.60;;;7.80;99.90;;;;;;5037775;28;20176;-78
2022/01/04 10:18:13;;;;;;;9.37;6.90;;;7.70;99.90;;;;;;5037882;28;20273;-79
2022/01/04 10:20:47;;;;;;;9.83;6.77;;;7.70;99.90;;;;;;5039425;28;20179;-79
2022/01/04 10:23:16;;;;;;;7.97;6.47;;;7.70;99.90;;;;;;5039787;28;20230;-79
2022/01/04 10:25:43;;;;;;;8.57;6.37;;;7.70;99.90;;;;;;5037579;28;20191;-78
2022/01/04 10:28:09;;;;;;;10.37;6.93;;;7.70;99.90;;;;;;5039511;28;20172;-78
2022/01/04 10:30:42;;;;;;;11.97;6.53;;;7.70;99.90;;;;;;5038411;28;20214;-78
2022/01/04 10:33:14;;;;;;;8.23;6.43;;;7.70;99.90;;;;;;5038861;28;20167;-79
2022/01/04 10:35:41;;;;;;;9.10;6.20;;;7.70;99.90;;;;;;5039001;28;20184;-78
2022/01/04 10:38:12;;;;;;;8.63;6.47;;;7.70;99.90;;;;;;5039087;28;20250;-78
2022/01/04 10:40:39;;;;;;;8.63;6.13;;;7.70;99.90;;;;;;5037823;28;20256;-79
2022/01/04 10:43:24;;;;;;;9.70;5.83;;;7.80;99.90;;;;;;5036190;28;20184;-79
2022/01/04 10:45:50;;;;;;;10.33;7.07;;;7.80;99.90;;;;;;5036092;28;20205;-78
2022/01/04 10:48:25;;;;;;;11.63;6.97;;;7.80;99.90;;;;;;5038578;28;20176;-79
2022/01/04 10:51:03;;;;;;;8.43;6.33;;;7.80;99.90;;;;;;5034885;28;20179;-79
2022/01/04 10:53:35;;;;;;;8.00;6.63;;;7.80;99.90;;;;;;5041784;28;20160;-79
2022/01/04 10:56:04;;;;;;;9.27;6.40;;;7.80;99.90;;;;;;5041568;28;20193;-79
2022/01/04 10:58:36;;;;;;;9.30;6.60;;;7.80;99.90;;;;;;5039522;28;20164;-78
2022/01/04 11:01:09;;;;;;;9.83;7.07;;;7.80;99.90;;;;;;5040168;28;20220;-78
2022/01/04 11:03:38;;;;;;;8.87;6.60;;;7.80;99.90;;;;;;5039336;28;20175;-79
2022/01/04 11:06:18;;;;;;;10.57;6.67;;;7.80;99.90;;;;;;5040888;28;20283;-79
2022/01/04 11:08:44;;;;;;;9.00;6.67;;;7.80;99.90;;;;;;5042720;28;20156;-79
2022/01/04 11:11:10;;;;;;;8.57;6.43;;;7.80;99.90;;;;;;5042046;28;20228;-79
2022/01/04 11:13:36;;;;;;;9.63;6.73;;;7.80;99.90;;;;;;5041593;28;20262;-79
2022/01/04 11:16:04;;;;;;;8.53;6.40;;;7.80;99.90;;;;;;5041074;28;20216;-79
2022/01/04 11:18:30;;;;;;;12.30;7.50;;;7.80;99.90;;;;;;5040524;28;20176;-79
2022/01/04 11:20:56;;;;;;;9.90;7.07;;;7.80;99.90;;;;;;5041812;28;20221;-79
2022/01/04 11:23:32;;;;;;;12.77;8.53;;;7.80;99.90;;;;;;5042609;28;20172;-79
2022/01/04 11:25:59;;;;;;;10.40;7.90;;;7.90;99.90;;;;;;5042084;28;20257;-79
2022/01/04 11:28:26;;;;;;;11.90;8.57;;;7.90;99.90;;;;;;5041958;28;20173;-79
2022/01/04 11:31:12;;;;;;;12.40;8.00;;;7.90;99.90;;;;;;5042678;28;20645;-79
2022/01/04 11:33:48;;;;;;;11.30;8.10;;;7.90;99.90;;;;;;5040640;28;20566;-78
2022/01/04 11:36:15;;;;;;;11.00;7.90;;;7.90;99.90;;;;;;5040389;28;20215;-79
2022/01/04 11:38:41;;;;;;;12.80;8.43;;;7.90;99.90;;;;;;5040485;28;20200;-79
2022/01/04 11:41:06;;;;;;;12.73;8.33;;;8.00;99.90;;;;;;5042333;28;20176;-81
2022/01/04 11:43:40;;;;;;;11.13;8.20;;;8.00;99.90;;;;;;5041100;28;20172;-79
2022/01/04 11:46:06;;;;;;;11.00;8.07;;;8.00;99.90;;;;;;5040861;28;20565;-79
2022/01/04 11:48:36;;;;;;;15.00;8.37;;;8.00;99.90;;;;;;5042558;28;20175;-79
2022/01/04 11:51:09;;;;;;;14.67;8.97;;;8.00;99.90;;;;;;5041031;28;20270;-79
2022/01/04 11:53:36;;;;;;;16.27;9.90;;;8.10;99.90;;;;;;5042091;28;20173;-79
2022/01/04 11:56:09;;;;;;;22.10;8.23;;;8.10;99.90;;;;;;5042127;28;20314;-79
2022/01/04 11:58:51;;;;;;;19.40;9.77;;;8.00;99.90;;;;;;5041076;28;20176;-79
2022/01/04 12:01:27;;;;;;;14.43;9.03;;;8.10;99.90;;;;;;5041314;28;20171;-79
2022/01/04 12:03:53;;;;;;;11.07;8.67;;;8.10;99.90;;;;;;5040268;28;20246;-79
2022/01/04 12:06:21;;;;;;;12.50;9.60;;;8.10;99.90;;;;;;5042369;28;20216;-79
2022/01/04 12:08:51;;;;;;;11.40;8.50;;;8.10;99.90;;;;;;5042355;28;20546;-79
2022/01/04 12:11:40;;;;;;;15.43;9.63;;;8.00;99.90;;;;;;5047900;28;20180;-79
2022/01/04 12:14:22;;;;;;;14.77;9.33;;;8.10;99.90;;;;;;5040410;28;20195;-79
2022/01/04 12:17:00;;;;;;;14.20;9.40;;;8.10;99.90;;;;;;5042872;28;20208;-79
2022/01/04 12:19:46;;;;;;;14.83;10.33;;;8.10;99.90;;;;;;5041603;28;20164;-80
2022/01/04 12:22:11;;;;;;;19.57;9.80;;;8.10;99.90;;;;;;5041202;28;20161;-79
2022/01/04 12:24:46;;;;;;;19.00;11.57;;;8.10;99.90;;;;;;5040040;28;20569;-79
2022/01/04 12:27:14;;;;;;;16.67;10.50;;;8.10;99.90;;;;;;5041007;28;20194;-79
2022/01/04 12:29:40;;;;;;;14.53;10.73;;;8.10;99.90;;;;;;5041345;28;20204;-80
2022/01/04 12:32:09;;;;;;;19.63;10.63;;;8.10;99.90;;;;;;5039470;28;20184;-79
2022/01/04 12:34:48;;;;;;;22.17;11.40;;;8.10;99.90;;;;;;5041696;28;20548;-78
2022/01/04 12:37:18;;;;;;;19.90;11.47;;;8.10;99.90;;;;;;5041855;28;20199;-79
2022/01/04 12:39:45;;;;;;;24.17;11.63;;;8.10;99.90;;;;;;5041381;28;20148;-80
2022/01/04 12:42:12;;;;;;;15.97;10.70;;;8.20;99.90;;;;;;5041237;28;20187;-79
2022/01/04 12:44:38;;;;;;;20.33;12.17;;;8.20;99.90;;;;;;5040590;28;20164;-79
2022/01/04 12:47:07;;;;;;;17.13;11.00;;;8.10;99.90;;;;;;5041080;28;20202;-79
2022/01/04 12:49:33;;;;;;;24.40;11.40;;;8.10;99.90;;;;;;5040524;28;20604;-78
2022/01/04 12:52:03;;;;;;;17.10;10.67;;;8.10;99.90;;;;;;5040027;28;20203;-79
2022/01/04 12:54:40;;;;;;;14.10;10.50;;;8.10;99.90;;;;;;5039658;28;20210;-79
2022/01/04 12:57:08;;;;;;;15.63;10.50;;;8.10;99.90;;;;;;5040469;28;20211;-79
2022/01/04 12:59:48;;;;;;;14.90;10.10;;;8.10;99.90;;;;;;5040529;28;20238;-78